sensor_id;sensor_type;location;lat;lon;timestamp;P1;durP1;ratioP1;P2;durP2;ratioP2
71288;SDS011;59068;52.502;9.860;2023-08-08T00:00:11;1.57;;;1.33;;
71288;SDS011;59068;52.502;9.860;2023-08-08T00:02:39;2.33;;;1.50;;
71288;SDS011;59068;52.502;9.860;2023-08-08T00:05:08;1.67;;;1.20;;
71288;SDS011;59068;52.502;9.860;2023-08-08T00:07:35;1.90;;;1.50;;
71288;SDS011;59068;52.502;9.860;2023-08-08T00:10:01;4.67;;;1.40;;
71288;SDS011;59068;52.502;9.860;2023-08-08T00:12:30;1.70;;;1.40;;
71288;SDS011;59068;52.502;9.860;2023-08-08T00:14:56;2.10;;;1.50;;
71288;SDS011;59068;52.502;9.860;2023-08-08T00:17:23;2.20;;;1.50;;
71288;SDS011;59068;52.502;9.860;2023-08-08T00:19:50;3.20;;;1.50;;
71288;SDS011;59068;52.502;9.860;2023-08-08T00:22:16;2.93;;;1.60;;
71288;SDS011;59068;52.502;9.860;2023-08-08T00:24:43;2.20;;;1.67;;
71288;SDS011;59068;52.502;9.860;2023-08-08T00:27:10;4.83;;;1.57;;
71288;SDS011;59068;52.502;9.860;2023-08-08T00:29:38;1.83;;;1.47;;
71288;SDS011;59068;52.502;9.860;2023-08-08T00:32:05;3.13;;;1.80;;
71288;SDS011;59068;52.502;9.860;2023-08-08T00:34:32;1.90;;;1.40;;
71288;SDS011;59068;52.502;9.860;2023-08-08T00:36:58;2.30;;;1.70;;
71288;SDS011;59068;52.502;9.860;2023-08-08T00:39:25;3.97;;;2.00;;
71288;SDS011;59068;52.502;9.860;2023-08-08T00:41:51;4.83;;;1.80;;
71288;SDS011;59068;52.502;9.860;2023-08-08T00:44:18;2.10;;;1.70;;
71288;SDS011;59068;52.502;9.860;2023-08-08T00:46:46;3.57;;;1.77;;
71288;SDS011;59068;52.502;9.860;2023-08-08T00:49:12;4.33;;;2.33;;
71288;SDS011;59068;52.502;9.860;2023-08-08T00:51:39;1.73;;;1.57;;
71288;SDS011;59068;52.502;9.860;2023-08-08T00:54:06;3.07;;;1.90;;
71288;SDS011;59068;52.502;9.860;2023-08-08T00:56:33;3.27;;;1.97;;
71288;SDS011;59068;52.502;9.860;2023-08-08T00:59:00;2.97;;;1.87;;
71288;SDS011;59068;52.502;9.860;2023-08-08T01:01:26;1.77;;;1.63;;
71288;SDS011;59068;52.502;9.860;2023-08-08T01:03:54;2.67;;;2.00;;
71288;SDS011;59068;52.502;9.860;2023-08-08T01:06:23;2.60;;;1.70;;
71288;SDS011;59068;52.502;9.860;2023-08-08T01:08:57;4.90;;;1.90;;
71288;SDS011;59068;52.502;9.860;2023-08-08T01:11:24;3.50;;;2.20;;
71288;SDS011;59068;52.502;9.860;2023-08-08T01:13:51;2.83;;;2.43;;
71288;SDS011;59068;52.502;9.860;2023-08-08T01:16:20;3.00;;;1.80;;
71288;SDS011;59068;52.502;9.860;2023-08-08T01:18:47;3.30;;;1.70;;
71288;SDS011;59068;52.502;9.860;2023-08-08T01:21:15;2.67;;;2.03;;
71288;SDS011;59068;52.502;9.860;2023-08-08T01:23:43;2.37;;;2.17;;
71288;SDS011;59068;52.502;9.860;2023-08-08T01:26:15;2.37;;;1.67;;
71288;SDS011;59068;52.502;9.860;2023-08-08T01:28:42;2.40;;;1.40;;
71288;SDS011;59068;52.502;9.860;2023-08-08T01:31:09;2.60;;;1.80;;
71288;SDS011;59068;52.502;9.860;2023-08-08T01:33:36;2.60;;;2.07;;
71288;SDS011;59068;52.502;9.860;2023-08-08T01:36:05;3.07;;;1.87;;
71288;SDS011;59068;52.502;9.860;2023-08-08T01:38:36;2.77;;;2.23;;
71288;SDS011;59068;52.502;9.860;2023-08-08T01:41:06;2.30;;;2.10;;
71288;SDS011;59068;52.502;9.860;2023-08-08T01:43:34;4.00;;;2.10;;
71288;SDS011;59068;52.502;9.860;2023-08-08T01:46:01;3.33;;;1.90;;
71288;SDS011;59068;52.502;9.860;2023-08-08T01:48:29;2.40;;;2.20;;
71288;SDS011;59068;52.502;9.860;2023-08-08T01:50:55;2.27;;;1.97;;
71288;SDS011;59068;52.502;9.860;2023-08-08T01:53:22;3.33;;;2.00;;
71288;SDS011;59068;52.502;9.860;2023-08-08T01:55:48;3.60;;;2.00;;
71288;SDS011;59068;52.502;9.860;2023-08-08T01:58:15;2.53;;;1.70;;
71288;SDS011;59068;52.502;9.860;2023-08-08T02:00:43;3.03;;;2.40;;
71288;SDS011;59068;52.502;9.860;2023-08-08T02:03:11;3.37;;;2.03;;
71288;SDS011;59068;52.502;9.860;2023-08-08T02:05:38;4.53;;;2.20;;
71288;SDS011;59068;52.502;9.860;2023-08-08T02:08:05;4.23;;;2.40;;
71288;SDS011;59068;52.502;9.860;2023-08-08T02:10:32;3.27;;;2.20;;
71288;SDS011;59068;52.502;9.860;2023-08-08T02:12:58;3.70;;;2.03;;
71288;SDS011;59068;52.502;9.860;2023-08-08T02:15:25;4.40;;;2.50;;
71288;SDS011;59068;52.502;9.860;2023-08-08T02:17:53;2.00;;;1.80;;
71288;SDS011;59068;52.502;9.860;2023-08-08T02:20:19;2.03;;;1.93;;
71288;SDS011;59068;52.502;9.860;2023-08-08T02:22:46;2.23;;;2.03;;
71288;SDS011;59068;52.502;9.860;2023-08-08T02:25:13;2.00;;;1.80;;
71288;SDS011;59068;52.502;9.860;2023-08-08T02:27:40;4.17;;;2.10;;
71288;SDS011;59068;52.502;9.860;2023-08-08T02:30:07;2.93;;;2.30;;
71288;SDS011;59068;52.502;9.860;2023-08-08T02:32:34;2.67;;;2.10;;
71288;SDS011;59068;52.502;9.860;2023-08-08T02:35:02;3.90;;;2.40;;
71288;SDS011;59068;52.502;9.860;2023-08-08T02:37:29;3.43;;;2.57;;
71288;SDS011;59068;52.502;9.860;2023-08-08T02:39:56;3.00;;;2.60;;
71288;SDS011;59068;52.502;9.860;2023-08-08T02:42:22;3.17;;;2.67;;
71288;SDS011;59068;52.502;9.860;2023-08-08T02:44:49;3.37;;;2.40;;
71288;SDS011;59068;52.502;9.860;2023-08-08T02:47:16;2.87;;;2.53;;
71288;SDS011;59068;52.502;9.860;2023-08-08T02:49:42;2.53;;;2.23;;
71288;SDS011;59068;52.502;9.860;2023-08-08T02:52:10;2.50;;;2.30;;
71288;SDS011;59068;52.502;9.860;2023-08-08T02:54:37;2.53;;;2.30;;
71288;SDS011;59068;52.502;9.860;2023-08-08T02:57:04;3.43;;;2.23;;
71288;SDS011;59068;52.502;9.860;2023-08-08T02:59:30;4.07;;;2.70;;
71288;SDS011;59068;52.502;9.860;2023-08-08T03:01:57;4.10;;;2.63;;
71288;SDS011;59068;52.502;9.860;2023-08-08T03:04:24;3.27;;;2.70;;
71288;SDS011;59068;52.502;9.860;2023-08-08T03:06:50;3.17;;;2.87;;
71288;SDS011;59068;52.502;9.860;2023-08-08T03:09:18;2.63;;;2.43;;
71288;SDS011;59068;52.502;9.860;2023-08-08T03:11:45;3.50;;;2.83;;
71288;SDS011;59068;52.502;9.860;2023-08-08T03:14:11;3.00;;;2.50;;
71288;SDS011;59068;52.502;9.860;2023-08-08T03:16:38;3.57;;;2.80;;
71288;SDS011;59068;52.502;9.860;2023-08-08T03:19:05;5.27;;;3.07;;
71288;SDS011;59068;52.502;9.860;2023-08-08T03:21:31;3.73;;;2.83;;
71288;SDS011;59068;52.502;9.860;2023-08-08T03:23:58;4.00;;;3.47;;
71288;SDS011;59068;52.502;9.860;2023-08-08T03:26:26;4.10;;;2.70;;
71288;SDS011;59068;52.502;9.860;2023-08-08T03:28:52;4.57;;;2.77;;
71288;SDS011;59068;52.502;9.860;2023-08-08T03:31:19;2.97;;;2.67;;
71288;SDS011;59068;52.502;9.860;2023-08-08T03:33:46;4.80;;;3.07;;
71288;SDS011;59068;52.502;9.860;2023-08-08T03:36:14;2.77;;;2.57;;
71288;SDS011;59068;52.502;9.860;2023-08-08T03:38:41;3.20;;;2.73;;
71288;SDS011;59068;52.502;9.860;2023-08-08T03:41:09;5.20;;;2.77;;
71288;SDS011;59068;52.502;9.860;2023-08-08T03:43:37;4.03;;;2.83;;
71288;SDS011;59068;52.502;9.860;2023-08-08T03:46:04;3.90;;;2.70;;
71288;SDS011;59068;52.502;9.860;2023-08-08T03:48:30;3.07;;;2.37;;
71288;SDS011;59068;52.502;9.860;2023-08-08T03:50:57;3.40;;;2.60;;
71288;SDS011;59068;52.502;9.860;2023-08-08T03:53:23;4.47;;;2.80;;
71288;SDS011;59068;52.502;9.860;2023-08-08T03:55:50;3.93;;;2.60;;
71288;SDS011;59068;52.502;9.860;2023-08-08T03:58:17;3.57;;;2.80;;
71288;SDS011;59068;52.502;9.860;2023-08-08T04:00:45;3.17;;;2.57;;
71288;SDS011;59068;52.502;9.860;2023-08-08T04:03:12;2.93;;;2.40;;
71288;SDS011;59068;52.502;9.860;2023-08-08T04:05:39;4.20;;;2.70;;
71288;SDS011;59068;52.502;9.860;2023-08-08T04:08:06;2.27;;;2.07;;
71288;SDS011;59068;52.502;9.860;2023-08-08T04:10:32;4.17;;;2.83;;
71288;SDS011;59068;52.502;9.860;2023-08-08T04:12:59;3.03;;;2.53;;
71288;SDS011;59068;52.502;9.860;2023-08-08T04:15:26;3.20;;;2.90;;
71288;SDS011;59068;52.502;9.860;2023-08-08T04:17:54;5.27;;;2.40;;
71288;SDS011;59068;52.502;9.860;2023-08-08T04:20:20;3.03;;;2.60;;
71288;SDS011;59068;52.502;9.860;2023-08-08T04:22:47;3.67;;;2.87;;
71288;SDS011;59068;52.502;9.860;2023-08-08T04:25:14;3.83;;;2.40;;
71288;SDS011;59068;52.502;9.860;2023-08-08T04:27:41;3.20;;;2.43;;
71288;SDS011;59068;52.502;9.860;2023-08-08T04:30:08;4.70;;;2.57;;
71288;SDS011;59068;52.502;9.860;2023-08-08T04:32:35;3.00;;;2.70;;
71288;SDS011;59068;52.502;9.860;2023-08-08T04:35:03;2.93;;;2.57;;
71288;SDS011;59068;52.502;9.860;2023-08-08T04:37:30;2.90;;;2.57;;
71288;SDS011;59068;52.502;9.860;2023-08-08T04:39:57;2.97;;;2.00;;
71288;SDS011;59068;52.502;9.860;2023-08-08T04:42:23;5.47;;;2.83;;
71288;SDS011;59068;52.502;9.860;2023-08-08T04:44:50;3.27;;;2.73;;
71288;SDS011;59068;52.502;9.860;2023-08-08T04:47:16;6.20;;;2.43;;
71288;SDS011;59068;52.502;9.860;2023-08-08T04:49:43;4.70;;;2.67;;
71288;SDS011;59068;52.502;9.860;2023-08-08T04:52:11;2.10;;;1.90;;
71288;SDS011;59068;52.502;9.860;2023-08-08T04:54:38;4.20;;;2.27;;
71288;SDS011;59068;52.502;9.860;2023-08-08T04:57:04;3.07;;;2.50;;
71288;SDS011;59068;52.502;9.860;2023-08-08T04:59:31;2.53;;;2.33;;
71288;SDS011;59068;52.502;9.860;2023-08-08T05:01:58;3.87;;;2.60;;
71288;SDS011;59068;52.502;9.860;2023-08-08T05:04:25;4.03;;;2.53;;
71288;SDS011;59068;52.502;9.860;2023-08-08T05:06:51;4.60;;;2.73;;
71288;SDS011;59068;52.502;9.860;2023-08-08T05:09:19;4.00;;;2.67;;
71288;SDS011;59068;52.502;9.860;2023-08-08T05:11:48;3.07;;;2.77;;
71288;SDS011;59068;52.502;9.860;2023-08-08T05:14:14;2.23;;;2.03;;
71288;SDS011;59068;52.502;9.860;2023-08-08T05:16:41;5.60;;;2.37;;
71288;SDS011;59068;52.502;9.860;2023-08-08T05:19:08;3.47;;;2.33;;
71288;SDS011;59068;52.502;9.860;2023-08-08T05:21:34;3.90;;;2.33;;
71288;SDS011;59068;52.502;9.860;2023-08-08T05:24:01;2.80;;;2.40;;
71288;SDS011;59068;52.502;9.860;2023-08-08T05:26:29;4.30;;;2.70;;
71288;SDS011;59068;52.502;9.860;2023-08-08T05:28:56;4.97;;;3.10;;
71288;SDS011;59068;52.502;9.860;2023-08-08T05:31:23;5.33;;;2.67;;
71288;SDS011;59068;52.502;9.860;2023-08-08T05:33:49;6.27;;;3.13;;
71288;SDS011;59068;52.502;9.860;2023-08-08T05:36:16;3.13;;;2.70;;
71288;SDS011;59068;52.502;9.860;2023-08-08T05:38:43;3.87;;;2.50;;
71288;SDS011;59068;52.502;9.860;2023-08-08T05:41:09;4.67;;;2.97;;
71288;SDS011;59068;52.502;9.860;2023-08-08T05:43:37;2.70;;;2.50;;
71288;SDS011;59068;52.502;9.860;2023-08-08T05:46:04;2.63;;;2.20;;
71288;SDS011;59068;52.502;9.860;2023-08-08T05:48:31;3.37;;;2.93;;
71288;SDS011;59068;52.502;9.860;2023-08-08T05:50:57;7.77;;;3.00;;
71288;SDS011;59068;52.502;9.860;2023-08-08T05:53:25;3.47;;;2.93;;
71288;SDS011;59068;52.502;9.860;2023-08-08T05:55:52;6.00;;;3.30;;
71288;SDS011;59068;52.502;9.860;2023-08-08T05:58:18;2.80;;;2.60;;
71288;SDS011;59068;52.502;9.860;2023-08-08T06:00:46;3.40;;;2.67;;
71288;SDS011;59068;52.502;9.860;2023-08-08T06:03:13;6.17;;;2.80;;
71288;SDS011;59068;52.502;9.860;2023-08-08T06:05:39;5.73;;;3.10;;
71288;SDS011;59068;52.502;9.860;2023-08-08T06:08:06;3.90;;;2.40;;
71288;SDS011;59068;52.502;9.860;2023-08-08T06:10:37;4.63;;;2.97;;
71288;SDS011;59068;52.502;9.860;2023-08-08T06:13:04;4.20;;;2.77;;
71288;SDS011;59068;52.502;9.860;2023-08-08T06:15:30;5.30;;;2.80;;
71288;SDS011;59068;52.502;9.860;2023-08-08T06:17:59;4.30;;;2.90;;
71288;SDS011;59068;52.502;9.860;2023-08-08T06:20:25;4.70;;;3.17;;
71288;SDS011;59068;52.502;9.860;2023-08-08T06:22:53;3.63;;;2.33;;
71288;SDS011;59068;52.502;9.860;2023-08-08T06:25:20;5.07;;;2.70;;
71288;SDS011;59068;52.502;9.860;2023-08-08T06:27:46;6.10;;;2.90;;
71288;SDS011;59068;52.502;9.860;2023-08-08T06:30:13;3.87;;;2.90;;
71288;SDS011;59068;52.502;9.860;2023-08-08T06:32:40;3.00;;;2.70;;
71288;SDS011;59068;52.502;9.860;2023-08-08T06:35:08;3.07;;;2.67;;
71288;SDS011;59068;52.502;9.860;2023-08-08T06:37:35;4.40;;;2.67;;
71288;SDS011;59068;52.502;9.860;2023-08-08T06:40:02;5.80;;;2.90;;
71288;SDS011;59068;52.502;9.860;2023-08-08T06:42:28;4.43;;;3.03;;
71288;SDS011;59068;52.502;9.860;2023-08-08T06:44:55;3.17;;;2.67;;
71288;SDS011;59068;52.502;9.860;2023-08-08T06:47:22;3.87;;;2.77;;
71288;SDS011;59068;52.502;9.860;2023-08-08T06:49:48;4.07;;;3.67;;
71288;SDS011;59068;52.502;9.860;2023-08-08T06:52:16;4.07;;;3.17;;
71288;SDS011;59068;52.502;9.860;2023-08-08T06:54:43;3.57;;;2.90;;
71288;SDS011;59068;52.502;9.860;2023-08-08T06:57:10;3.93;;;2.97;;
71288;SDS011;59068;52.502;9.860;2023-08-08T06:59:37;3.30;;;2.73;;
71288;SDS011;59068;52.502;9.860;2023-08-08T07:02:03;5.40;;;3.40;;
71288;SDS011;59068;52.502;9.860;2023-08-08T07:04:30;3.43;;;3.00;;
71288;SDS011;59068;52.502;9.860;2023-08-08T07:06:57;3.77;;;3.00;;
71288;SDS011;59068;52.502;9.860;2023-08-08T07:09:25;3.73;;;2.60;;
71288;SDS011;59068;52.502;9.860;2023-08-08T07:11:52;4.27;;;3.13;;
71288;SDS011;59068;52.502;9.860;2023-08-08T07:14:19;3.73;;;3.00;;
71288;SDS011;59068;52.502;9.860;2023-08-08T07:16:45;3.70;;;2.70;;
71288;SDS011;59068;52.502;9.860;2023-08-08T07:19:13;5.67;;;2.47;;
71288;SDS011;59068;52.502;9.860;2023-08-08T07:21:40;3.77;;;3.40;;
71288;SDS011;59068;52.502;9.860;2023-08-08T07:24:07;3.80;;;3.13;;
71288;SDS011;59068;52.502;9.860;2023-08-08T07:26:36;3.23;;;2.93;;
71288;SDS011;59068;52.502;9.860;2023-08-08T07:29:03;3.37;;;2.57;;
71288;SDS011;59068;52.502;9.860;2023-08-08T07:31:31;5.47;;;2.97;;
71288;SDS011;59068;52.502;9.860;2023-08-08T07:33:57;3.93;;;2.43;;
71288;SDS011;59068;52.502;9.860;2023-08-08T07:36:24;7.63;;;3.27;;
71288;SDS011;59068;52.502;9.860;2023-08-08T07:38:51;4.53;;;2.50;;
71288;SDS011;59068;52.502;9.860;2023-08-08T07:41:17;4.70;;;1.90;;
71288;SDS011;59068;52.502;9.860;2023-08-08T07:43:45;4.00;;;1.43;;
71288;SDS011;59068;52.502;9.860;2023-08-08T07:46:12;3.97;;;1.80;;
71288;SDS011;59068;52.502;9.860;2023-08-08T07:48:39;2.23;;;1.93;;
71288;SDS011;59068;52.502;9.860;2023-08-08T07:51:05;3.13;;;1.43;;
71288;SDS011;59068;52.502;9.860;2023-08-08T07:53:32;2.80;;;1.67;;
71288;SDS011;59068;52.502;9.860;2023-08-08T07:55:58;6.60;;;1.80;;
71288;SDS011;59068;52.502;9.860;2023-08-08T07:58:25;4.40;;;1.80;;
71288;SDS011;59068;52.502;9.860;2023-08-08T08:00:53;4.33;;;1.80;;
71288;SDS011;59068;52.502;9.860;2023-08-08T08:03:20;2.10;;;1.40;;
71288;SDS011;59068;52.502;9.860;2023-08-08T08:05:47;2.23;;;1.63;;
71288;SDS011;59068;52.502;9.860;2023-08-08T08:08:13;3.17;;;1.30;;
71288;SDS011;59068;52.502;9.860;2023-08-08T08:10:40;2.57;;;1.67;;
71288;SDS011;59068;52.502;9.860;2023-08-08T08:13:06;2.60;;;1.60;;
71288;SDS011;59068;52.502;9.860;2023-08-08T08:15:33;3.27;;;1.97;;
71288;SDS011;59068;52.502;9.860;2023-08-08T08:18:01;2.67;;;1.70;;
71288;SDS011;59068;52.502;9.860;2023-08-08T08:20:28;4.30;;;2.20;;
71288;SDS011;59068;52.502;9.860;2023-08-08T08:22:55;3.60;;;2.03;;
71288;SDS011;59068;52.502;9.860;2023-08-08T08:25:23;2.37;;;1.93;;
71288;SDS011;59068;52.502;9.860;2023-08-08T08:27:53;3.87;;;2.00;;
71288;SDS011;59068;52.502;9.860;2023-08-08T08:30:20;2.53;;;1.70;;
71288;SDS011;59068;52.502;9.860;2023-08-08T08:32:50;4.53;;;1.90;;
71288;SDS011;59068;52.502;9.860;2023-08-08T08:35:19;4.30;;;1.87;;
71288;SDS011;59068;52.502;9.860;2023-08-08T08:37:46;1.97;;;1.77;;
71288;SDS011;59068;52.502;9.860;2023-08-08T08:40:13;3.83;;;1.80;;
71288;SDS011;59068;52.502;9.860;2023-08-08T08:42:41;3.80;;;1.67;;
71288;SDS011;59068;52.502;9.860;2023-08-08T08:45:09;3.33;;;1.17;;
71288;SDS011;59068;52.502;9.860;2023-08-08T08:47:38;2.47;;;1.53;;
71288;SDS011;59068;52.502;9.860;2023-08-08T08:50:08;6.43;;;1.60;;
71288;SDS011;59068;52.502;9.860;2023-08-08T08:52:37;2.27;;;1.30;;
71288;SDS011;59068;52.502;9.860;2023-08-08T08:55:04;2.90;;;1.57;;
71288;SDS011;59068;52.502;9.860;2023-08-08T08:57:32;2.10;;;1.27;;
71288;SDS011;59068;52.502;9.860;2023-08-08T09:00:00;3.20;;;1.23;;
71288;SDS011;59068;52.502;9.860;2023-08-08T09:02:29;2.73;;;1.23;;
71288;SDS011;59068;52.502;9.860;2023-08-08T09:04:56;3.97;;;1.13;;
71288;SDS011;59068;52.502;9.860;2023-08-08T09:07:25;2.00;;;1.00;;
71288;SDS011;59068;52.502;9.860;2023-08-08T09:09:54;3.07;;;1.17;;
71288;SDS011;59068;52.502;9.860;2023-08-08T09:12:21;1.77;;;1.37;;
71288;SDS011;59068;52.502;9.860;2023-08-08T09:14:53;3.07;;;1.50;;
71288;SDS011;59068;52.502;9.860;2023-08-08T09:17:21;1.80;;;1.00;;
71288;SDS011;59068;52.502;9.860;2023-08-08T09:19:48;1.77;;;1.40;;
71288;SDS011;59068;52.502;9.860;2023-08-08T09:22:17;2.37;;;1.43;;
71288;SDS011;59068;52.502;9.860;2023-08-08T09:24:44;2.03;;;1.20;;
71288;SDS011;59068;52.502;9.860;2023-08-08T09:27:13;2.03;;;1.20;;
71288;SDS011;59068;52.502;9.860;2023-08-08T09:29:41;1.60;;;1.40;;
71288;SDS011;59068;52.502;9.860;2023-08-08T09:32:08;1.83;;;1.50;;
71288;SDS011;59068;52.502;9.860;2023-08-08T09:34:36;2.20;;;1.10;;
71288;SDS011;59068;52.502;9.860;2023-08-08T09:37:04;1.43;;;1.33;;
71288;SDS011;59068;52.502;9.860;2023-08-08T09:39:32;1.60;;;1.03;;
71288;SDS011;59068;52.502;9.860;2023-08-08T09:42:01;2.97;;;1.27;;
71288;SDS011;59068;52.502;9.860;2023-08-08T09:44:30;2.47;;;1.17;;
71288;SDS011;59068;52.502;9.860;2023-08-08T09:47:01;0.60;;;0.60;;
71288;SDS011;59068;52.502;9.860;2023-08-08T09:49:28;1.67;;;1.03;;
71288;SDS011;59068;52.502;9.860;2023-08-08T09:51:58;1.53;;;0.90;;
71288;SDS011;59068;52.502;9.860;2023-08-08T09:54:25;2.87;;;1.20;;
71288;SDS011;59068;52.502;9.860;2023-08-08T09:56:55;3.43;;;1.20;;
71288;SDS011;59068;52.502;9.860;2023-08-08T09:59:22;2.67;;;1.20;;
71288;SDS011;59068;52.502;9.860;2023-08-08T10:01:51;3.27;;;1.40;;
71288;SDS011;59068;52.502;9.860;2023-08-08T10:04:20;2.47;;;1.20;;
71288;SDS011;59068;52.502;9.860;2023-08-08T10:06:47;2.30;;;1.00;;
71288;SDS011;59068;52.502;9.860;2023-08-08T10:09:14;3.20;;;1.37;;
71288;SDS011;59068;52.502;9.860;2023-08-08T10:11:42;2.10;;;1.63;;
71288;SDS011;59068;52.502;9.860;2023-08-08T10:14:10;4.40;;;1.40;;
71288;SDS011;59068;52.502;9.860;2023-08-08T10:16:39;1.50;;;1.20;;
71288;SDS011;59068;52.502;9.860;2023-08-08T10:19:09;1.80;;;1.50;;
71288;SDS011;59068;52.502;9.860;2023-08-08T10:21:37;1.83;;;1.40;;
71288;SDS011;59068;52.502;9.860;2023-08-08T10:24:07;2.47;;;1.33;;
71288;SDS011;59068;52.502;9.860;2023-08-08T10:26:50;1.80;;;1.50;;
71288;SDS011;59068;52.502;9.860;2023-08-08T10:29:23;2.67;;;1.30;;
71288;SDS011;59068;52.502;9.860;2023-08-08T10:31:52;1.93;;;1.23;;
71288;SDS011;59068;52.502;9.860;2023-08-08T10:34:21;3.47;;;1.90;;
71288;SDS011;59068;52.502;9.860;2023-08-08T10:36:54;2.30;;;1.30;;
71288;SDS011;59068;52.502;9.860;2023-08-08T10:39:21;1.83;;;1.20;;
71288;SDS011;59068;52.502;9.860;2023-08-08T10:41:50;2.57;;;1.50;;
71288;SDS011;59068;52.502;9.860;2023-08-08T10:44:21;2.73;;;1.90;;
71288;SDS011;59068;52.502;9.860;2023-08-08T10:46:50;2.93;;;1.63;;
71288;SDS011;59068;52.502;9.860;2023-08-08T10:49:18;2.47;;;1.67;;
71288;SDS011;59068;52.502;9.860;2023-08-08T10:51:48;4.37;;;1.60;;
71288;SDS011;59068;52.502;9.860;2023-08-08T10:54:18;2.63;;;1.40;;
71288;SDS011;59068;52.502;9.860;2023-08-08T10:56:49;1.90;;;1.20;;
71288;SDS011;59068;52.502;9.860;2023-08-08T10:59:20;2.77;;;1.30;;
71288;SDS011;59068;52.502;9.860;2023-08-08T11:01:49;2.23;;;1.50;;
71288;SDS011;59068;52.502;9.860;2023-08-08T11:04:18;1.37;;;1.07;;
71288;SDS011;59068;52.502;9.860;2023-08-08T11:06:48;2.93;;;0.93;;
71288;SDS011;59068;52.502;9.860;2023-08-08T11:09:16;1.67;;;1.07;;
71288;SDS011;59068;52.502;9.860;2023-08-08T11:11:44;2.17;;;0.90;;
71288;SDS011;59068;52.502;9.860;2023-08-08T11:14:11;2.57;;;1.07;;
71288;SDS011;59068;52.502;9.860;2023-08-08T11:16:41;0.80;;;0.70;;
71288;SDS011;59068;52.502;9.860;2023-08-08T11:19:09;1.97;;;0.70;;
71288;SDS011;59068;52.502;9.860;2023-08-08T11:21:39;2.03;;;0.67;;
71288;SDS011;59068;52.502;9.860;2023-08-08T11:24:07;2.10;;;0.70;;
71288;SDS011;59068;52.502;9.860;2023-08-08T11:26:36;2.67;;;0.70;;
71288;SDS011;59068;52.502;9.860;2023-08-08T11:29:05;2.77;;;0.80;;
71288;SDS011;59068;52.502;9.860;2023-08-08T11:31:33;3.07;;;0.87;;
71288;SDS011;59068;52.502;9.860;2023-08-08T11:34:02;2.00;;;0.80;;
71288;SDS011;59068;52.502;9.860;2023-08-08T11:36:30;2.33;;;1.13;;
71288;SDS011;59068;52.502;9.860;2023-08-08T11:39:01;2.50;;;0.90;;
71288;SDS011;59068;52.502;9.860;2023-08-08T11:41:33;1.03;;;0.70;;
71288;SDS011;59068;52.502;9.860;2023-08-08T11:44:02;1.03;;;0.67;;
71288;SDS011;59068;52.502;9.860;2023-08-08T11:46:32;0.90;;;0.43;;
71288;SDS011;59068;52.502;9.860;2023-08-08T11:49:03;0.93;;;0.60;;
71288;SDS011;59068;52.502;9.860;2023-08-08T11:51:31;2.10;;;0.63;;
71288;SDS011;59068;52.502;9.860;2023-08-08T11:54:03;0.80;;;0.50;;
71288;SDS011;59068;52.502;9.860;2023-08-08T11:56:32;0.93;;;0.60;;
71288;SDS011;59068;52.502;9.860;2023-08-08T11:59:00;1.40;;;0.70;;
71288;SDS011;59068;52.502;9.860;2023-08-08T12:01:30;1.23;;;0.70;;
71288;SDS011;59068;52.502;9.860;2023-08-08T12:04:03;1.43;;;0.57;;
71288;SDS011;59068;52.502;9.860;2023-08-08T12:06:32;4.07;;;0.80;;
71288;SDS011;59068;52.502;9.860;2023-08-08T12:09:00;1.57;;;0.83;;
71288;SDS011;59068;52.502;9.860;2023-08-08T12:11:30;1.23;;;0.80;;
71288;SDS011;59068;52.502;9.860;2023-08-08T12:13:59;1.60;;;0.67;;
71288;SDS011;59068;52.502;9.860;2023-08-08T12:16:27;1.27;;;0.73;;
71288;SDS011;59068;52.502;9.860;2023-08-08T12:18:55;0.60;;;0.60;;
71288;SDS011;59068;52.502;9.860;2023-08-08T12:21:22;1.57;;;1.00;;
71288;SDS011;59068;52.502;9.860;2023-08-08T12:23:49;2.53;;;1.10;;
71288;SDS011;59068;52.502;9.860;2023-08-08T12:26:17;1.23;;;0.70;;
71288;SDS011;59068;52.502;9.860;2023-08-08T12:28:44;2.67;;;0.80;;
71288;SDS011;59068;52.502;9.860;2023-08-08T12:31:11;1.20;;;1.00;;
71288;SDS011;59068;52.502;9.860;2023-08-08T12:33:38;1.87;;;0.97;;
71288;SDS011;59068;52.502;9.860;2023-08-08T12:36:05;2.30;;;1.30;;
71288;SDS011;59068;52.502;9.860;2023-08-08T12:38:32;3.30;;;1.00;;
71288;SDS011;59068;52.502;9.860;2023-08-08T12:41:01;2.83;;;1.10;;
71288;SDS011;59068;52.502;9.860;2023-08-08T12:43:30;1.60;;;0.90;;
71288;SDS011;59068;52.502;9.860;2023-08-08T12:45:59;1.20;;;0.90;;
71288;SDS011;59068;52.502;9.860;2023-08-08T12:48:27;1.57;;;0.87;;
71288;SDS011;59068;52.502;9.860;2023-08-08T12:50:55;2.50;;;0.80;;
71288;SDS011;59068;52.502;9.860;2023-08-08T12:53:22;4.87;;;0.90;;
71288;SDS011;59068;52.502;9.860;2023-08-08T12:55:50;1.40;;;1.00;;
71288;SDS011;59068;52.502;9.860;2023-08-08T12:58:17;2.83;;;1.00;;
71288;SDS011;59068;52.502;9.860;2023-08-08T13:00:46;0.83;;;0.70;;
71288;SDS011;59068;52.502;9.860;2023-08-08T13:03:13;1.00;;;0.70;;
71288;SDS011;59068;52.502;9.860;2023-08-08T13:05:40;2.67;;;0.90;;
71288;SDS011;59068;52.502;9.860;2023-08-08T13:08:07;0.60;;;0.50;;
71288;SDS011;59068;52.502;9.860;2023-08-08T13:10:35;0.80;;;0.60;;
71288;SDS011;59068;52.502;9.860;2023-08-08T13:13:02;1.53;;;0.80;;
71288;SDS011;59068;52.502;9.860;2023-08-08T13:15:29;2.07;;;0.60;;
71288;SDS011;59068;52.502;9.860;2023-08-08T13:17:57;1.50;;;0.40;;
71288;SDS011;59068;52.502;9.860;2023-08-08T13:20:26;0.57;;;0.53;;
71288;SDS011;59068;52.502;9.860;2023-08-08T13:22:52;1.80;;;0.70;;
71288;SDS011;59068;52.502;9.860;2023-08-08T13:25:20;1.00;;;0.80;;
71288;SDS011;59068;52.502;9.860;2023-08-08T13:27:47;1.57;;;0.67;;
71288;SDS011;59068;52.502;9.860;2023-08-08T13:30:14;2.63;;;0.83;;
71288;SDS011;59068;52.502;9.860;2023-08-08T13:32:43;1.50;;;0.60;;
71288;SDS011;59068;52.502;9.860;2023-08-08T13:35:12;1.70;;;0.60;;
71288;SDS011;59068;52.502;9.860;2023-08-08T13:37:39;0.57;;;0.53;;
71288;SDS011;59068;52.502;9.860;2023-08-08T13:40:06;0.87;;;0.50;;
71288;SDS011;59068;52.502;9.860;2023-08-08T13:42:35;2.63;;;1.10;;
71288;SDS011;59068;52.502;9.860;2023-08-08T13:45:03;1.23;;;0.60;;
71288;SDS011;59068;52.502;9.860;2023-08-08T13:47:30;2.00;;;0.67;;
71288;SDS011;59068;52.502;9.860;2023-08-08T13:49:58;1.00;;;0.70;;
71288;SDS011;59068;52.502;9.860;2023-08-08T13:52:27;0.93;;;0.53;;
71288;SDS011;59068;52.502;9.860;2023-08-08T13:54:55;1.10;;;0.50;;
71288;SDS011;59068;52.502;9.860;2023-08-08T13:57:22;0.70;;;0.70;;
71288;SDS011;59068;52.502;9.860;2023-08-08T13:59:50;1.03;;;0.50;;
71288;SDS011;59068;52.502;9.860;2023-08-08T14:02:16;2.00;;;0.70;;
71288;SDS011;59068;52.502;9.860;2023-08-08T14:04:45;1.73;;;0.80;;
71288;SDS011;59068;52.502;9.860;2023-08-08T14:07:12;2.27;;;1.10;;
71288;SDS011;59068;52.502;9.860;2023-08-08T14:09:43;2.60;;;1.53;;
71288;SDS011;59068;52.502;9.860;2023-08-08T14:12:10;2.47;;;0.80;;
71288;SDS011;59068;52.502;9.860;2023-08-08T14:14:38;2.00;;;0.70;;
71288;SDS011;59068;52.502;9.860;2023-08-08T14:17:07;1.03;;;0.67;;
71288;SDS011;59068;52.502;9.860;2023-08-08T14:19:34;1.70;;;0.93;;
71288;SDS011;59068;52.502;9.860;2023-08-08T14:22:00;1.23;;;0.80;;
71288;SDS011;59068;52.502;9.860;2023-08-08T14:24:27;0.73;;;0.60;;
71288;SDS011;59068;52.502;9.860;2023-08-08T14:26:55;1.17;;;0.60;;
71288;SDS011;59068;52.502;9.860;2023-08-08T14:29:22;1.03;;;0.70;;
71288;SDS011;59068;52.502;9.860;2023-08-08T14:31:49;1.43;;;0.60;;
71288;SDS011;59068;52.502;9.860;2023-08-08T14:34:16;0.60;;;0.60;;
71288;SDS011;59068;52.502;9.860;2023-08-08T14:36:43;1.43;;;0.73;;
71288;SDS011;59068;52.502;9.860;2023-08-08T14:39:11;0.93;;;0.50;;
71288;SDS011;59068;52.502;9.860;2023-08-08T14:41:41;0.70;;;0.70;;
71288;SDS011;59068;52.502;9.860;2023-08-08T14:44:09;1.33;;;0.50;;
71288;SDS011;59068;52.502;9.860;2023-08-08T14:46:37;1.17;;;0.77;;
71288;SDS011;59068;52.502;9.860;2023-08-08T14:49:04;1.03;;;0.60;;